NOH24 / GZ100 7700 Squawk Report (11th of January, 2018)

Aircraft A109 Reg No. GZ100 Age N/A
Model AW-109 Turbine engines 2 First flight N/A
Registered N/A Rollout N/A Delivered N/A
Construction No. 22347 Line No. N/A Series SP
ADSHEX 406F50 Airline name Royal Air Force Owner N/A
Airfield based Northolt~Gtr London~G First tracked 2015-11-24 15:01:07
Time Lat Lon Altitude Heading Speed Vertical Rate
2018-01-11 16:58:57 GMT 51.58084 -0.29762 1,550 250 93 -120
2018-01-11 16:58:28 GMT 51.58461 -0.27897 1,750 253 38 0
2018-01-11 16:58:07 GMT 51.58938 -0.26773 1,775 215 137 60
2018-01-11 16:57:58 GMT 51.59319 -0.26446 1,775 203 92 60
2018-01-11 16:57:47 GMT 51.59751 -0.26141 1,775 210 118 0
2018-01-11 16:57:17 GMT 51.61000 -0.25202 23,975 115 64 17280
2018-01-11 16:56:07 GMT 51.61885 -0.28239 1,775 69 56 -60
2018-01-11 16:55:58 GMT 51.61801 -0.28632 1,750 68 105 -60
2018-01-11 16:55:39 GMT 51.61568 -0.29657 1,775 67 75 60
2018-01-11 16:55:28 GMT 51.61422 -0.30238 1,775 79 19 60
2018-01-11 16:55:16 GMT 51.61291 -0.30819 1,750 61 78 0
2018-01-11 16:55:08 GMT 51.61198 -0.31168 1,750 73 131 0
2018-01-11 16:54:55 GMT 51.61016 -0.31869 1,750 74 14 0
2018-01-11 16:54:46 GMT 51.60918 -0.32347 1,750 73 79 -60
2018-01-11 16:54:37 GMT 51.60817 -0.32827 1,750 68 31 0
2018-01-11 16:54:25 GMT 51.60672 -0.33433 1,775 75 82 0
2018-01-11 16:54:18 GMT 51.60596 -0.33771 1,775 71 71 0
2018-01-11 16:54:06 GMT 51.60470 -0.34407 1,775 66 91 60
2018-01-11 16:53:57 GMT 51.60346 -0.34796 1,775 73 98 0
2018-01-11 16:53:48 GMT 51.60239 -0.35385 1,750 70 63 -60
2018-01-11 16:53:38 GMT 51.60125 -0.35877 1,775 51 96 60
2018-01-11 16:53:25 GMT 51.59956 -0.36506 1,775 74 89 60
2018-01-11 16:53:17 GMT 51.59865 -0.37017 1,775 58 32 0
2018-01-11 16:53:08 GMT 51.59748 -0.37467 1,750 78 100 -60
2018-01-11 16:52:58 GMT 51.59625 -0.37997 1,750 68 71 -120
2018-01-11 16:52:27 GMT 51.59260 -0.39616 1,750 67 59 0
2018-01-11 16:52:19 GMT 51.59161 -0.40043 1,750 71 54 -180
2018-01-11 16:52:08 GMT 51.59039 -0.40574 1,750 51 65 0
2018-01-11 16:51:57 GMT 51.58896 -0.41054 1,800 68 82 60
2018-01-11 16:51:49 GMT 51.58781 -0.41512 1,800 61 52 60
2018-01-11 16:51:39 GMT 51.58638 -0.42121 1,775 69 74 60
2018-01-11 16:51:28 GMT 51.58495 -0.42601 1,750 77 143 0
2018-01-11 16:51:18 GMT 51.58341 -0.43379 1,750 75 109 0

Making use of Plane Finder data

You are free to use the raw flight data, aircraft information and images provided in this report for your own purposes provided the data is correctly attributed to Plane Finder. We ask that you please credit Plane Finder and link to planefinder.net in close proximity to the content.

Optionally one of the following logos (no smaller then 150x24px) can be used and must link to planefinder.net

Embedding the Plane Finder map

You are welcome to embed the Plane Finder playback map on your website to offer visitors a more interactive experience. We suggest using the following HTML code:

<iframe src="//planefinder.net/data/report/NOH24-GZ100-7700-squawk-2018-01-11/map" width="800" height="600" seamless="seamless"></iframe>

Where our data comes from

Plane Finder has a global network of data feeds and antenna radars that receive data broadcast directly from aircraft. The primary technologies used are ADS-B and MLAT. We also show feeds from the FAA and a FLARM glider feed.

Click here to find out more about the Plane Finder network.

How we collect our data